KFMN/FMN METAR and TAF weather

Enter ICAO airport designator
Station Type Date Time Source
KFMN METAR 2019/02/21 15:53 UTC NOAA

KFMN 211553Z 15008G16KT 10SM OVC055 M01/M07 A2968 RMK AO2 SLP071 T10111072


Station Type Date Time Source
KFMN Decoded METAR 2019/02/21 15:53 UTC NOAA

FARMINGTON FOUR CORNERS, NM, United States (KFMN) 36-45N 108-14W 1685M
Feb 21, 2019 - 10:53 AM EST / 2019.02.21 1553 UTC
Wind: from the SSE (150 degrees) at 9 MPH (8 KT) gusting to 18 MPH (16 KT):0
Visibility: 10 mile(s):0
Sky conditions: overcast
Temperature: 30.0 F (-1.1 C)
Windchill: 21 F (-6 C):1
Dew Point: 19.0 F (-7.2 C)
Relative Humidity: 63%
Pressure (altimeter): 29.68 in. Hg (1005 hPa)
ob: KFMN 211553Z 15008G16KT 10SM OVC055 M01/M07 A2968 RMK AO2 SLP071 T10111072
cycle: 16

Station Type Date Time Source
KFMN TAF 2019/02/21 12:40 UTC NOAA

TAF KFMN 211137Z 2112/2212 10010G18KT 5SM -SN BR OVC030
FM211600 13013KT P6SM VCSH OVC040
FM220000 16013KT 2SM -SN BR OVC020


Example: see airport list